sensor_id;sensor_type;location;lat;lon;timestamp;temperature;humidity
46758;DHT22;32509;47.750;-3.396;2023-04-25T00:01:15;12.40;99.90
46758;DHT22;32509;47.750;-3.396;2023-04-25T00:03:41;12.40;99.90
46758;DHT22;32509;47.750;-3.396;2023-04-25T00:06:07;12.40;99.90
46758;DHT22;32509;47.750;-3.396;2023-04-25T00:08:33;12.40;99.90
46758;DHT22;32509;47.750;-3.396;2023-04-25T00:10:59;12.40;99.90
46758;DHT22;32509;47.750;-3.396;2023-04-25T00:13:25;12.40;99.90
46758;DHT22;32509;47.750;-3.396;2023-04-25T00:15:52;12.40;99.90
46758;DHT22;32509;47.750;-3.396;2023-04-25T00:18:19;12.30;99.90
46758;DHT22;32509;47.750;-3.396;2023-04-25T00:20:45;12.30;99.90
46758;DHT22;32509;47.750;-3.396;2023-04-25T00:23:16;12.30;99.90
46758;DHT22;32509;47.750;-3.396;2023-04-25T00:25:44;12.30;99.90
46758;DHT22;32509;47.750;-3.396;2023-04-25T00:28:11;12.30;99.90
46758;DHT22;32509;47.750;-3.396;2023-04-25T00:30:38;12.30;99.90
46758;DHT22;32509;47.750;-3.396;2023-04-25T00:33:04;12.30;99.90
46758;DHT22;32509;47.750;-3.396;2023-04-25T00:35:30;12.30;99.90
46758;DHT22;32509;47.750;-3.396;2023-04-25T00:37:56;12.30;99.90
46758;DHT22;32509;47.750;-3.396;2023-04-25T00:40:22;12.30;99.90
46758;DHT22;32509;47.750;-3.396;2023-04-25T00:42:47;12.30;99.90
46758;DHT22;32509;47.750;-3.396;2023-04-25T00:45:14;12.30;99.90
46758;DHT22;32509;47.750;-3.396;2023-04-25T00:47:41;12.30;99.90
46758;DHT22;32509;47.750;-3.396;2023-04-25T00:50:08;12.20;99.90
46758;DHT22;32509;47.750;-3.396;2023-04-25T00:52:34;12.10;99.90
46758;DHT22;32509;47.750;-3.396;2023-04-25T00:55:01;12.10;99.90
46758;DHT22;32509;47.750;-3.396;2023-04-25T00:57:27;12.10;99.90
46758;DHT22;32509;47.750;-3.396;2023-04-25T00:59:54;12.10;99.90
46758;DHT22;32509;47.750;-3.396;2023-04-25T01:02:20;12.10;99.90
46758;DHT22;32509;47.750;-3.396;2023-04-25T01:04:48;12.10;99.90
46758;DHT22;32509;47.750;-3.396;2023-04-25T01:07:14;12.00;99.90
46758;DHT22;32509;47.750;-3.396;2023-04-25T01:09:41;12.10;99.90
46758;DHT22;32509;47.750;-3.396;2023-04-25T01:12:07;12.00;99.90
46758;DHT22;32509;47.750;-3.396;2023-04-25T01:14:33;12.00;99.90
46758;DHT22;32509;47.750;-3.396;2023-04-25T01:16:59;12.10;99.90
46758;DHT22;32509;47.750;-3.396;2023-04-25T01:19:25;12.10;99.90
46758;DHT22;32509;47.750;-3.396;2023-04-25T01:21:51;12.10;99.90
46758;DHT22;32509;47.750;-3.396;2023-04-25T01:24:17;12.10;99.90
46758;DHT22;32509;47.750;-3.396;2023-04-25T01:26:43;12.10;99.90
46758;DHT22;32509;47.750;-3.396;2023-04-25T01:29:19;12.20;99.90
46758;DHT22;32509;47.750;-3.396;2023-04-25T01:31:46;12.20;99.90
46758;DHT22;32509;47.750;-3.396;2023-04-25T01:34:12;12.20;99.90
46758;DHT22;32509;47.750;-3.396;2023-04-25T01:36:39;12.20;99.90
46758;DHT22;32509;47.750;-3.396;2023-04-25T01:39:06;12.10;99.90
46758;DHT22;32509;47.750;-3.396;2023-04-25T01:41:32;12.10;99.90
46758;DHT22;32509;47.750;-3.396;2023-04-25T01:43:58;12.10;99.90
46758;DHT22;32509;47.750;-3.396;2023-04-25T01:46:24;12.10;99.90
46758;DHT22;32509;47.750;-3.396;2023-04-25T01:48:50;12.10;99.90
46758;DHT22;32509;47.750;-3.396;2023-04-25T01:51:15;12.10;99.90
46758;DHT22;32509;47.750;-3.396;2023-04-25T01:53:42;12.00;99.90
46758;DHT22;32509;47.750;-3.396;2023-04-25T01:56:08;12.00;99.90
46758;DHT22;32509;47.750;-3.396;2023-04-25T01:58:34;12.00;99.90
46758;DHT22;32509;47.750;-3.396;2023-04-25T02:01:00;12.00;99.90
46758;DHT22;32509;47.750;-3.396;2023-04-25T02:03:25;12.00;99.90
46758;DHT22;32509;47.750;-3.396;2023-04-25T02:05:51;12.00;99.90
46758;DHT22;32509;47.750;-3.396;2023-04-25T02:08:17;12.00;99.90
46758;DHT22;32509;47.750;-3.396;2023-04-25T02:10:44;12.00;99.90
46758;DHT22;32509;47.750;-3.396;2023-04-25T02:13:10;11.90;99.90
46758;DHT22;32509;47.750;-3.396;2023-04-25T02:15:35;12.00;99.90
46758;DHT22;32509;47.750;-3.396;2023-04-25T02:18:01;12.00;99.90
46758;DHT22;32509;47.750;-3.396;2023-04-25T02:20:28;12.00;99.90
46758;DHT22;32509;47.750;-3.396;2023-04-25T02:22:54;11.90;99.90
46758;DHT22;32509;47.750;-3.396;2023-04-25T02:25:20;12.00;99.90
46758;DHT22;32509;47.750;-3.396;2023-04-25T02:27:47;11.90;99.90
46758;DHT22;32509;47.750;-3.396;2023-04-25T02:30:13;11.90;99.90
46758;DHT22;32509;47.750;-3.396;2023-04-25T02:32:39;11.90;99.90
46758;DHT22;32509;47.750;-3.396;2023-04-25T02:35:06;11.90;99.90
46758;DHT22;32509;47.750;-3.396;2023-04-25T02:37:36;11.90;99.90
46758;DHT22;32509;47.750;-3.396;2023-04-25T02:40:02;11.90;99.90
46758;DHT22;32509;47.750;-3.396;2023-04-25T02:42:29;11.80;99.90
46758;DHT22;32509;47.750;-3.396;2023-04-25T02:44:55;11.80;99.90
46758;DHT22;32509;47.750;-3.396;2023-04-25T02:47:21;11.80;99.90
46758;DHT22;32509;47.750;-3.396;2023-04-25T02:49:47;11.80;99.90
46758;DHT22;32509;47.750;-3.396;2023-04-25T02:52:13;11.80;99.90
46758;DHT22;32509;47.750;-3.396;2023-04-25T02:54:40;11.80;99.90
46758;DHT22;32509;47.750;-3.396;2023-04-25T02:57:06;11.80;99.90
46758;DHT22;32509;47.750;-3.396;2023-04-25T02:59:32;11.80;99.90
46758;DHT22;32509;47.750;-3.396;2023-04-25T03:01:58;11.90;99.90
46758;DHT22;32509;47.750;-3.396;2023-04-25T03:04:24;11.80;99.90
46758;DHT22;32509;47.750;-3.396;2023-04-25T03:06:50;11.80;99.90
46758;DHT22;32509;47.750;-3.396;2023-04-25T03:09:16;11.80;99.90
46758;DHT22;32509;47.750;-3.396;2023-04-25T03:11:43;11.80;99.90
46758;DHT22;32509;47.750;-3.396;2023-04-25T03:14:09;11.80;99.90
46758;DHT22;32509;47.750;-3.396;2023-04-25T03:16:35;11.80;99.90
46758;DHT22;32509;47.750;-3.396;2023-04-25T03:19:01;11.80;99.90
46758;DHT22;32509;47.750;-3.396;2023-04-25T03:21:27;11.80;99.90
46758;DHT22;32509;47.750;-3.396;2023-04-25T03:23:53;11.80;99.90
46758;DHT22;32509;47.750;-3.396;2023-04-25T03:26:19;11.80;99.90
46758;DHT22;32509;47.750;-3.396;2023-04-25T03:28:45;11.80;99.90
46758;DHT22;32509;47.750;-3.396;2023-04-25T03:31:10;11.80;99.90
46758;DHT22;32509;47.750;-3.396;2023-04-25T03:33:36;11.80;99.90
46758;DHT22;32509;47.750;-3.396;2023-04-25T03:36:02;11.70;99.90
46758;DHT22;32509;47.750;-3.396;2023-04-25T03:38:28;11.80;99.90
46758;DHT22;32509;47.750;-3.396;2023-04-25T03:40:54;11.80;99.90
46758;DHT22;32509;47.750;-3.396;2023-04-25T03:43:21;11.80;99.90
46758;DHT22;32509;47.750;-3.396;2023-04-25T03:45:47;11.80;99.90
46758;DHT22;32509;47.750;-3.396;2023-04-25T03:48:13;11.70;99.90
46758;DHT22;32509;47.750;-3.396;2023-04-25T03:50:39;11.70;99.90
46758;DHT22;32509;47.750;-3.396;2023-04-25T03:53:04;11.80;99.90
46758;DHT22;32509;47.750;-3.396;2023-04-25T03:55:30;11.70;99.90
46758;DHT22;32509;47.750;-3.396;2023-04-25T03:57:57;11.70;99.90
46758;DHT22;32509;47.750;-3.396;2023-04-25T04:00:23;11.70;99.90
46758;DHT22;32509;47.750;-3.396;2023-04-25T04:02:49;11.70;99.90
46758;DHT22;32509;47.750;-3.396;2023-04-25T04:05:15;11.70;99.90
46758;DHT22;32509;47.750;-3.396;2023-04-25T04:07:41;11.70;99.90
46758;DHT22;32509;47.750;-3.396;2023-04-25T04:10:09;11.70;99.90
46758;DHT22;32509;47.750;-3.396;2023-04-25T04:12:35;11.70;99.90
46758;DHT22;32509;47.750;-3.396;2023-04-25T04:15:02;11.60;99.90
46758;DHT22;32509;47.750;-3.396;2023-04-25T04:17:29;11.60;99.90
46758;DHT22;32509;47.750;-3.396;2023-04-25T04:19:55;11.60;99.90
46758;DHT22;32509;47.750;-3.396;2023-04-25T04:22:22;11.60;99.90
46758;DHT22;32509;47.750;-3.396;2023-04-25T04:24:48;11.60;99.90
46758;DHT22;32509;47.750;-3.396;2023-04-25T04:27:18;11.60;99.90
46758;DHT22;32509;47.750;-3.396;2023-04-25T04:29:45;11.60;99.90
46758;DHT22;32509;47.750;-3.396;2023-04-25T04:32:12;11.60;99.90
46758;DHT22;32509;47.750;-3.396;2023-04-25T04:34:38;11.60;99.90
46758;DHT22;32509;47.750;-3.396;2023-04-25T04:37:05;11.60;99.90
46758;DHT22;32509;47.750;-3.396;2023-04-25T04:39:36;11.60;99.90
46758;DHT22;32509;47.750;-3.396;2023-04-25T04:42:02;11.70;99.90
46758;DHT22;32509;47.750;-3.396;2023-04-25T04:44:29;11.60;99.90
46758;DHT22;32509;47.750;-3.396;2023-04-25T04:46:58;11.60;99.90
46758;DHT22;32509;47.750;-3.396;2023-04-25T04:49:24;11.60;99.90
46758;DHT22;32509;47.750;-3.396;2023-04-25T04:51:50;11.60;99.90
46758;DHT22;32509;47.750;-3.396;2023-04-25T04:54:15;11.60;99.90
46758;DHT22;32509;47.750;-3.396;2023-04-25T04:56:41;11.60;99.90
46758;DHT22;32509;47.750;-3.396;2023-04-25T04:59:07;11.70;99.90
46758;DHT22;32509;47.750;-3.396;2023-04-25T05:01:33;11.70;99.90
46758;DHT22;32509;47.750;-3.396;2023-04-25T05:04:01;11.70;99.90
46758;DHT22;32509;47.750;-3.396;2023-04-25T05:06:28;11.60;99.90
46758;DHT22;32509;47.750;-3.396;2023-04-25T05:08:55;11.70;99.90
46758;DHT22;32509;47.750;-3.396;2023-04-25T05:11:22;11.70;99.90
46758;DHT22;32509;47.750;-3.396;2023-04-25T05:13:49;11.70;99.90
46758;DHT22;32509;47.750;-3.396;2023-04-25T05:16:15;11.70;99.90
46758;DHT22;32509;47.750;-3.396;2023-04-25T05:18:42;11.70;99.90
46758;DHT22;32509;47.750;-3.396;2023-04-25T05:21:07;11.60;99.90
46758;DHT22;32509;47.750;-3.396;2023-04-25T05:23:33;11.60;99.90
46758;DHT22;32509;47.750;-3.396;2023-04-25T05:25:59;11.60;99.90
46758;DHT22;32509;47.750;-3.396;2023-04-25T05:28:25;11.60;99.90
46758;DHT22;32509;47.750;-3.396;2023-04-25T05:30:51;11.70;99.90
46758;DHT22;32509;47.750;-3.396;2023-04-25T05:33:17;11.70;99.90
46758;DHT22;32509;47.750;-3.396;2023-04-25T05:35:43;11.70;99.90
46758;DHT22;32509;47.750;-3.396;2023-04-25T05:38:09;11.70;99.90
46758;DHT22;32509;47.750;-3.396;2023-04-25T05:40:35;11.60;99.90
46758;DHT22;32509;47.750;-3.396;2023-04-25T05:43:01;11.60;99.90
46758;DHT22;32509;47.750;-3.396;2023-04-25T05:45:27;11.60;99.90
46758;DHT22;32509;47.750;-3.396;2023-04-25T05:47:53;11.60;99.90
46758;DHT22;32509;47.750;-3.396;2023-04-25T05:50:22;11.60;99.90
46758;DHT22;32509;47.750;-3.396;2023-04-25T05:52:48;11.60;99.90
46758;DHT22;32509;47.750;-3.396;2023-04-25T05:55:13;11.50;99.90
46758;DHT22;32509;47.750;-3.396;2023-04-25T05:57:39;11.50;99.90
46758;DHT22;32509;47.750;-3.396;2023-04-25T06:00:14;11.50;99.90
46758;DHT22;32509;47.750;-3.396;2023-04-25T06:02:41;11.60;99.90
46758;DHT22;32509;47.750;-3.396;2023-04-25T06:05:08;11.60;99.90
46758;DHT22;32509;47.750;-3.396;2023-04-25T06:07:34;11.60;99.90
46758;DHT22;32509;47.750;-3.396;2023-04-25T06:10:00;11.60;99.90
46758;DHT22;32509;47.750;-3.396;2023-04-25T06:12:26;11.60;99.90
46758;DHT22;32509;47.750;-3.396;2023-04-25T06:14:52;11.70;99.90
46758;DHT22;32509;47.750;-3.396;2023-04-25T06:17:18;11.70;99.90
46758;DHT22;32509;47.750;-3.396;2023-04-25T06:19:43;11.70;99.90
46758;DHT22;32509;47.750;-3.396;2023-04-25T06:22:10;11.80;99.90
46758;DHT22;32509;47.750;-3.396;2023-04-25T06:24:36;11.80;99.90
46758;DHT22;32509;47.750;-3.396;2023-04-25T06:27:01;11.80;99.90
46758;DHT22;32509;47.750;-3.396;2023-04-25T06:29:28;11.70;99.90
46758;DHT22;32509;47.750;-3.396;2023-04-25T06:31:53;11.70;99.90
46758;DHT22;32509;47.750;-3.396;2023-04-25T06:34:19;11.80;99.90
46758;DHT22;32509;47.750;-3.396;2023-04-25T06:36:46;11.80;99.90
46758;DHT22;32509;47.750;-3.396;2023-04-25T06:39:11;11.80;99.90
46758;DHT22;32509;47.750;-3.396;2023-04-25T06:41:37;11.90;99.90
46758;DHT22;32509;47.750;-3.396;2023-04-25T06:44:03;11.90;99.90
46758;DHT22;32509;47.750;-3.396;2023-04-25T06:46:29;11.90;99.90
46758;DHT22;32509;47.750;-3.396;2023-04-25T06:48:54;11.90;99.90
46758;DHT22;32509;47.750;-3.396;2023-04-25T06:51:20;11.90;99.90
46758;DHT22;32509;47.750;-3.396;2023-04-25T06:53:46;11.90;99.90
46758;DHT22;32509;47.750;-3.396;2023-04-25T06:56:12;11.90;99.90
46758;DHT22;32509;47.750;-3.396;2023-04-25T06:58:38;11.90;99.90
46758;DHT22;32509;47.750;-3.396;2023-04-25T07:01:03;11.90;99.90
46758;DHT22;32509;47.750;-3.396;2023-04-25T07:03:29;11.90;99.90
46758;DHT22;32509;47.750;-3.396;2023-04-25T07:05:55;11.90;99.90
46758;DHT22;32509;47.750;-3.396;2023-04-25T07:08:21;11.90;99.90
46758;DHT22;32509;47.750;-3.396;2023-04-25T07:10:47;11.90;99.90
46758;DHT22;32509;47.750;-3.396;2023-04-25T07:13:12;12.00;99.90
46758;DHT22;32509;47.750;-3.396;2023-04-25T07:15:38;12.00;99.90
46758;DHT22;32509;47.750;-3.396;2023-04-25T07:18:04;11.90;99.90
46758;DHT22;32509;47.750;-3.396;2023-04-25T07:20:30;11.90;99.90
46758;DHT22;32509;47.750;-3.396;2023-04-25T07:22:56;11.90;99.90
46758;DHT22;32509;47.750;-3.396;2023-04-25T07:25:22;11.90;99.90
46758;DHT22;32509;47.750;-3.396;2023-04-25T07:27:48;11.90;99.90
46758;DHT22;32509;47.750;-3.396;2023-04-25T07:30:14;11.90;99.90
46758;DHT22;32509;47.750;-3.396;2023-04-25T07:32:40;11.90;99.90
46758;DHT22;32509;47.750;-3.396;2023-04-25T07:35:06;12.00;99.90
46758;DHT22;32509;47.750;-3.396;2023-04-25T07:37:35;12.00;99.90
46758;DHT22;32509;47.750;-3.396;2023-04-25T07:40:05;12.00;99.90
46758;DHT22;32509;47.750;-3.396;2023-04-25T07:42:31;12.00;99.90
46758;DHT22;32509;47.750;-3.396;2023-04-25T07:44:57;12.10;99.90
46758;DHT22;32509;47.750;-3.396;2023-04-25T07:47:23;12.10;99.90
46758;DHT22;32509;47.750;-3.396;2023-04-25T07:49:49;12.10;99.90
46758;DHT22;32509;47.750;-3.396;2023-04-25T07:52:15;12.10;99.90
46758;DHT22;32509;47.750;-3.396;2023-04-25T07:54:41;12.10;99.90
46758;DHT22;32509;47.750;-3.396;2023-04-25T07:57:07;12.10;99.90
46758;DHT22;32509;47.750;-3.396;2023-04-25T07:59:33;12.00;99.90
46758;DHT22;32509;47.750;-3.396;2023-04-25T08:01:59;12.10;99.90
46758;DHT22;32509;47.750;-3.396;2023-04-25T08:04:25;12.10;99.90
46758;DHT22;32509;47.750;-3.396;2023-04-25T08:06:51;12.20;99.90
46758;DHT22;32509;47.750;-3.396;2023-04-25T08:09:19;12.20;99.90
46758;DHT22;32509;47.750;-3.396;2023-04-25T08:11:45;12.20;99.90
46758;DHT22;32509;47.750;-3.396;2023-04-25T08:14:12;12.20;99.90
46758;DHT22;32509;47.750;-3.396;2023-04-25T08:16:38;12.30;99.90
46758;DHT22;32509;47.750;-3.396;2023-04-25T08:19:04;12.20;99.90
46758;DHT22;32509;47.750;-3.396;2023-04-25T08:21:30;12.30;99.90
46758;DHT22;32509;47.750;-3.396;2023-04-25T08:23:57;12.30;99.90
46758;DHT22;32509;47.750;-3.396;2023-04-25T08:26:24;12.30;99.90
46758;DHT22;32509;47.750;-3.396;2023-04-25T08:28:50;12.40;99.90
46758;DHT22;32509;47.750;-3.396;2023-04-25T08:31:16;12.40;99.90
46758;DHT22;32509;47.750;-3.396;2023-04-25T08:33:42;12.40;99.90
46758;DHT22;32509;47.750;-3.396;2023-04-25T08:36:08;12.50;99.90
46758;DHT22;32509;47.750;-3.396;2023-04-25T08:38:34;12.50;99.90
46758;DHT22;32509;47.750;-3.396;2023-04-25T08:41:00;12.50;99.90
46758;DHT22;32509;47.750;-3.396;2023-04-25T08:43:29;12.50;99.90
46758;DHT22;32509;47.750;-3.396;2023-04-25T08:45:59;12.60;99.90
46758;DHT22;32509;47.750;-3.396;2023-04-25T08:48:27;12.60;99.90
46758;DHT22;32509;47.750;-3.396;2023-04-25T08:50:56;12.60;99.90
46758;DHT22;32509;47.750;-3.396;2023-04-25T08:53:29;12.60;99.90
46758;DHT22;32509;47.750;-3.396;2023-04-25T08:55:56;12.70;99.90
46758;DHT22;32509;47.750;-3.396;2023-04-25T08:58:22;12.70;99.90
46758;DHT22;32509;47.750;-3.396;2023-04-25T09:00:49;12.80;99.90
46758;DHT22;32509;47.750;-3.396;2023-04-25T09:03:16;12.80;99.90
46758;DHT22;32509;47.750;-3.396;2023-04-25T09:05:42;12.80;99.90
46758;DHT22;32509;47.750;-3.396;2023-04-25T09:08:08;12.80;99.90
46758;DHT22;32509;47.750;-3.396;2023-04-25T09:10:35;12.80;99.90
46758;DHT22;32509;47.750;-3.396;2023-04-25T09:13:08;12.80;99.90
46758;DHT22;32509;47.750;-3.396;2023-04-25T09:15:52;12.90;99.90
46758;DHT22;32509;47.750;-3.396;2023-04-25T09:18:32;12.90;99.90
46758;DHT22;32509;47.750;-3.396;2023-04-25T09:21:09;12.90;99.90
46758;DHT22;32509;47.750;-3.396;2023-04-25T09:23:46;12.80;99.90
46758;DHT22;32509;47.750;-3.396;2023-04-25T09:26:19;12.90;99.90
46758;DHT22;32509;47.750;-3.396;2023-04-25T09:28:46;12.90;99.90
46758;DHT22;32509;47.750;-3.396;2023-04-25T09:31:22;13.00;99.90
46758;DHT22;32509;47.750;-3.396;2023-04-25T09:33:49;12.90;99.90
46758;DHT22;32509;47.750;-3.396;2023-04-25T09:36:15;13.00;99.90
46758;DHT22;32509;47.750;-3.396;2023-04-25T09:38:42;12.90;99.90
46758;DHT22;32509;47.750;-3.396;2023-04-25T09:41:09;13.00;99.90
46758;DHT22;32509;47.750;-3.396;2023-04-25T09:43:36;13.00;99.90
46758;DHT22;32509;47.750;-3.396;2023-04-25T09:46:02;13.00;99.90
46758;DHT22;32509;47.750;-3.396;2023-04-25T09:48:28;13.00;99.90
46758;DHT22;32509;47.750;-3.396;2023-04-25T09:51:14;13.00;99.90
46758;DHT22;32509;47.750;-3.396;2023-04-25T09:53:46;13.00;99.90
46758;DHT22;32509;47.750;-3.396;2023-04-25T09:56:15;13.00;99.90
46758;DHT22;32509;47.750;-3.396;2023-04-25T09:58:41;13.00;99.90
46758;DHT22;32509;47.750;-3.396;2023-04-25T10:01:09;13.00;99.90
46758;DHT22;32509;47.750;-3.396;2023-04-25T10:03:38;13.10;99.90
46758;DHT22;32509;47.750;-3.396;2023-04-25T10:06:20;13.20;99.90
46758;DHT22;32509;47.750;-3.396;2023-04-25T10:08:50;13.20;99.90
46758;DHT22;32509;47.750;-3.396;2023-04-25T10:11:17;13.20;99.90
46758;DHT22;32509;47.750;-3.396;2023-04-25T10:13:43;13.30;99.90
46758;DHT22;32509;47.750;-3.396;2023-04-25T10:16:10;13.30;99.90
46758;DHT22;32509;47.750;-3.396;2023-04-25T10:18:36;13.30;99.90
46758;DHT22;32509;47.750;-3.396;2023-04-25T10:21:04;13.40;99.90
46758;DHT22;32509;47.750;-3.396;2023-04-25T10:23:32;13.40;99.90
46758;DHT22;32509;47.750;-3.396;2023-04-25T10:26:00;13.40;99.90
46758;DHT22;32509;47.750;-3.396;2023-04-25T10:28:26;13.40;99.90
46758;DHT22;32509;47.750;-3.396;2023-04-25T10:31:07;13.50;99.90
46758;DHT22;32509;47.750;-3.396;2023-04-25T10:33:38;13.50;99.90
46758;DHT22;32509;47.750;-3.396;2023-04-25T10:36:14;13.50;99.90
46758;DHT22;32509;47.750;-3.396;2023-04-25T10:38:45;13.50;99.90
46758;DHT22;32509;47.750;-3.396;2023-04-25T10:41:12;13.50;99.90
46758;DHT22;32509;47.750;-3.396;2023-04-25T10:43:39;13.50;99.90
46758;DHT22;32509;47.750;-3.396;2023-04-25T10:46:26;13.50;99.90
46758;DHT22;32509;47.750;-3.396;2023-04-25T10:48:54;13.50;99.90
46758;DHT22;32509;47.750;-3.396;2023-04-25T10:51:25;13.40;99.90
46758;DHT22;32509;47.750;-3.396;2023-04-25T10:56:28;13.40;99.90
46758;DHT22;32509;47.750;-3.396;2023-04-25T10:59:14;13.50;99.90
46758;DHT22;32509;47.750;-3.396;2023-04-25T11:01:45;13.50;99.90
46758;DHT22;32509;47.750;-3.396;2023-04-25T11:04:30;13.50;99.90
46758;DHT22;32509;47.750;-3.396;2023-04-25T11:07:13;13.50;99.90
46758;DHT22;32509;47.750;-3.396;2023-04-25T11:09:45;13.60;99.90
46758;DHT22;32509;47.750;-3.396;2023-04-25T11:12:11;13.60;99.90
46758;DHT22;32509;47.750;-3.396;2023-04-25T11:14:38;13.60;99.90
46758;DHT22;32509;47.750;-3.396;2023-04-25T11:17:03;13.60;99.90
46758;DHT22;32509;47.750;-3.396;2023-04-25T11:19:29;13.60;99.90
46758;DHT22;32509;47.750;-3.396;2023-04-25T11:21:57;13.60;99.90
46758;DHT22;32509;47.750;-3.396;2023-04-25T11:24:33;13.60;99.90
46758;DHT22;32509;47.750;-3.396;2023-04-25T11:27:05;13.60;99.90
46758;DHT22;32509;47.750;-3.396;2023-04-25T11:29:34;13.60;99.90
46758;DHT22;32509;47.750;-3.396;2023-04-25T11:32:01;13.60;99.90
46758;DHT22;32509;47.750;-3.396;2023-04-25T11:34:28;13.60;99.90
46758;DHT22;32509;47.750;-3.396;2023-04-25T11:36:56;13.60;99.90
46758;DHT22;32509;47.750;-3.396;2023-04-25T11:39:23;13.60;99.90
46758;DHT22;32509;47.750;-3.396;2023-04-25T11:41:49;13.60;99.90
46758;DHT22;32509;47.750;-3.396;2023-04-25T11:44:16;13.60;99.90
46758;DHT22;32509;47.750;-3.396;2023-04-25T11:46:42;13.60;99.90
46758;DHT22;32509;47.750;-3.396;2023-04-25T11:49:08;13.60;99.90
46758;DHT22;32509;47.750;-3.396;2023-04-25T11:51:42;13.60;99.90
46758;DHT22;32509;47.750;-3.396;2023-04-25T11:54:09;13.60;99.90
46758;DHT22;32509;47.750;-3.396;2023-04-25T11:56:35;13.60;99.90
46758;DHT22;32509;47.750;-3.396;2023-04-25T11:59:05;13.70;99.90
46758;DHT22;32509;47.750;-3.396;2023-04-25T12:01:36;13.70;99.90
46758;DHT22;32509;47.750;-3.396;2023-04-25T12:04:15;13.70;99.90
46758;DHT22;32509;47.750;-3.396;2023-04-25T12:06:42;13.60;99.90
46758;DHT22;32509;47.750;-3.396;2023-04-25T12:09:11;13.70;99.90
46758;DHT22;32509;47.750;-3.396;2023-04-25T12:11:52;13.70;99.90
46758;DHT22;32509;47.750;-3.396;2023-04-25T12:14:31;13.70;99.90
46758;DHT22;32509;47.750;-3.396;2023-04-25T12:17:00;13.70;99.90
46758;DHT22;32509;47.750;-3.396;2023-04-25T12:19:31;13.80;99.90
46758;DHT22;32509;47.750;-3.396;2023-04-25T12:22:00;13.80;99.90
46758;DHT22;32509;47.750;-3.396;2023-04-25T12:24:27;13.80;99.90
46758;DHT22;32509;47.750;-3.396;2023-04-25T12:27:00;13.80;99.90
46758;DHT22;32509;47.750;-3.396;2023-04-25T12:29:29;13.80;99.90
46758;DHT22;32509;47.750;-3.396;2023-04-25T12:31:55;13.80;99.90
46758;DHT22;32509;47.750;-3.396;2023-04-25T12:34:22;13.80;99.90
46758;DHT22;32509;47.750;-3.396;2023-04-25T12:36:49;13.80;99.90
46758;DHT22;32509;47.750;-3.396;2023-04-25T12:39:23;13.80;99.90
46758;DHT22;32509;47.750;-3.396;2023-04-25T12:41:49;13.70;99.90
46758;DHT22;32509;47.750;-3.396;2023-04-25T12:44:16;13.80;99.90
46758;DHT22;32509;47.750;-3.396;2023-04-25T12:46:42;13.80;99.90
46758;DHT22;32509;47.750;-3.396;2023-04-25T12:49:08;13.80;99.90
46758;DHT22;32509;47.750;-3.396;2023-04-25T12:51:38;13.80;99.90
46758;DHT22;32509;47.750;-3.396;2023-04-25T12:54:05;13.80;99.90
46758;DHT22;32509;47.750;-3.396;2023-04-25T12:56:34;13.80;99.90
46758;DHT22;32509;47.750;-3.396;2023-04-25T12:59:00;13.80;99.90
46758;DHT22;32509;47.750;-3.396;2023-04-25T13:01:28;13.70;99.90
46758;DHT22;32509;47.750;-3.396;2023-04-25T13:03:54;13.70;99.90
46758;DHT22;32509;47.750;-3.396;2023-04-25T13:06:21;13.70;99.90
46758;DHT22;32509;47.750;-3.396;2023-04-25T13:08:48;13.70;99.90
46758;DHT22;32509;47.750;-3.396;2023-04-25T13:11:14;13.70;99.90
46758;DHT22;32509;47.750;-3.396;2023-04-25T13:13:40;13.70;99.90
46758;DHT22;32509;47.750;-3.396;2023-04-25T13:16:07;13.70;99.90
46758;DHT22;32509;47.750;-3.396;2023-04-25T13:18:34;13.70;99.90
46758;DHT22;32509;47.750;-3.396;2023-04-25T13:21:00;13.70;99.90
46758;DHT22;32509;47.750;-3.396;2023-04-25T13:23:27;13.60;99.90
46758;DHT22;32509;47.750;-3.396;2023-04-25T13:25:53;13.60;99.90
46758;DHT22;32509;47.750;-3.396;2023-04-25T13:28:20;13.70;99.90
46758;DHT22;32509;47.750;-3.396;2023-04-25T13:30:46;13.60;99.90
46758;DHT22;32509;47.750;-3.396;2023-04-25T13:33:14;13.60;99.90
46758;DHT22;32509;47.750;-3.396;2023-04-25T13:35:40;13.60;99.90
46758;DHT22;32509;47.750;-3.396;2023-04-25T13:38:05;13.60;99.90
46758;DHT22;32509;47.750;-3.396;2023-04-25T13:40:31;13.60;99.90
46758;DHT22;32509;47.750;-3.396;2023-04-25T13:42:57;13.60;99.90
46758;DHT22;32509;47.750;-3.396;2023-04-25T13:45:23;13.60;99.90
46758;DHT22;32509;47.750;-3.396;2023-04-25T13:47:49;13.50;99.90
46758;DHT22;32509;47.750;-3.396;2023-04-25T13:50:15;13.60;99.90
46758;DHT22;32509;47.750;-3.396;2023-04-25T13:52:41;13.60;99.90
46758;DHT22;32509;47.750;-3.396;2023-04-25T13:55:08;13.60;99.90
46758;DHT22;32509;47.750;-3.396;2023-04-25T13:57:34;13.60;99.90
46758;DHT22;32509;47.750;-3.396;2023-04-25T14:00:00;13.60;99.90
46758;DHT22;32509;47.750;-3.396;2023-04-25T14:02:30;13.60;99.90
46758;DHT22;32509;47.750;-3.396;2023-04-25T14:04:56;13.70;99.90
46758;DHT22;32509;47.750;-3.396;2023-04-25T14:07:21;13.70;99.90
46758;DHT22;32509;47.750;-3.396;2023-04-25T14:09:47;13.60;99.90
46758;DHT22;32509;47.750;-3.396;2023-04-25T14:12:13;13.70;99.90
46758;DHT22;32509;47.750;-3.396;2023-04-25T14:14:39;13.70;99.90
46758;DHT22;32509;47.750;-3.396;2023-04-25T14:17:05;13.70;99.90
46758;DHT22;32509;47.750;-3.396;2023-04-25T14:19:32;13.70;99.90
46758;DHT22;32509;47.750;-3.396;2023-04-25T14:21:57;13.60;99.90
46758;DHT22;32509;47.750;-3.396;2023-04-25T14:24:23;13.70;99.90
46758;DHT22;32509;47.750;-3.396;2023-04-25T14:26:49;13.70;99.90
46758;DHT22;32509;47.750;-3.396;2023-04-25T14:29:15;13.70;99.90
46758;DHT22;32509;47.750;-3.396;2023-04-25T14:31:41;13.70;99.90
46758;DHT22;32509;47.750;-3.396;2023-04-25T14:34:07;13.60;99.90
46758;DHT22;32509;47.750;-3.396;2023-04-25T14:36:33;13.60;99.90
46758;DHT22;32509;47.750;-3.396;2023-04-25T14:38:59;13.70;99.90
46758;DHT22;32509;47.750;-3.396;2023-04-25T14:41:25;13.70;99.90
46758;DHT22;32509;47.750;-3.396;2023-04-25T14:43:52;13.60;99.90
46758;DHT22;32509;47.750;-3.396;2023-04-25T14:46:21;13.70;99.90
46758;DHT22;32509;47.750;-3.396;2023-04-25T14:48:48;13.70;99.90
46758;DHT22;32509;47.750;-3.396;2023-04-25T14:51:14;13.60;99.90
46758;DHT22;32509;47.750;-3.396;2023-04-25T14:53:41;13.70;99.90
46758;DHT22;32509;47.750;-3.396;2023-04-25T14:56:07;13.70;99.90
46758;DHT22;32509;47.750;-3.396;2023-04-25T14:58:33;13.70;99.90
46758;DHT22;32509;47.750;-3.396;2023-04-25T15:00:59;13.70;99.90
46758;DHT22;32509;47.750;-3.396;2023-04-25T15:03:25;13.60;99.90
46758;DHT22;32509;47.750;-3.396;2023-04-25T15:05:53;13.60;99.90
46758;DHT22;32509;47.750;-3.396;2023-04-25T15:08:20;13.60;99.90
46758;DHT22;32509;47.750;-3.396;2023-04-25T15:10:46;13.60;99.90
46758;DHT22;32509;47.750;-3.396;2023-04-25T15:13:12;13.60;99.90
46758;DHT22;32509;47.750;-3.396;2023-04-25T15:15:38;13.60;99.90
46758;DHT22;32509;47.750;-3.396;2023-04-25T15:18:04;13.60;99.90